sensor_id;sensor_type;location;lat;lon;timestamp;P1;durP1;ratioP1;P2;durP2;ratioP2
21820;SDS011;11073;48.586;12.066;2023-04-24T00:01:02;6.50;;;2.40;;
21820;SDS011;11073;48.586;12.066;2023-04-24T00:03:32;4.43;;;2.45;;
21820;SDS011;11073;48.586;12.066;2023-04-24T00:06:01;4.93;;;2.38;;
21820;SDS011;11073;48.586;12.066;2023-04-24T00:08:30;3.80;;;2.47;;
21820;SDS011;11073;48.586;12.066;2023-04-24T00:10:59;6.80;;;2.38;;
21820;SDS011;11073;48.586;12.066;2023-04-24T00:13:28;2.53;;;2.15;;
21820;SDS011;11073;48.586;12.066;2023-04-24T00:15:57;4.53;;;2.20;;
21820;SDS011;11073;48.586;12.066;2023-04-24T00:18:25;3.22;;;2.10;;
21820;SDS011;11073;48.586;12.066;2023-04-24T00:20:56;3.55;;;1.90;;
21820;SDS011;11073;48.586;12.066;2023-04-24T00:23:24;3.35;;;2.35;;
21820;SDS011;11073;48.586;12.066;2023-04-24T00:25:53;3.85;;;2.40;;
21820;SDS011;11073;48.586;12.066;2023-04-24T00:28:21;3.60;;;2.58;;
21820;SDS011;11073;48.586;12.066;2023-04-24T00:30:50;3.10;;;1.92;;
21820;SDS011;11073;48.586;12.066;2023-04-24T00:33:19;2.92;;;2.00;;
21820;SDS011;11073;48.586;12.066;2023-04-24T00:35:48;5.63;;;2.72;;
21820;SDS011;11073;48.586;12.066;2023-04-24T00:38:18;3.67;;;2.50;;
21820;SDS011;11073;48.586;12.066;2023-04-24T00:40:47;3.05;;;1.92;;
21820;SDS011;11073;48.586;12.066;2023-04-24T00:43:17;4.03;;;2.20;;
21820;SDS011;11073;48.586;12.066;2023-04-24T00:45:46;2.50;;;1.67;;
21820;SDS011;11073;48.586;12.066;2023-04-24T00:48:14;2.78;;;2.47;;
21820;SDS011;11073;48.586;12.066;2023-04-24T00:50:44;3.88;;;2.35;;
21820;SDS011;11073;48.586;12.066;2023-04-24T00:53:14;2.65;;;2.20;;
21820;SDS011;11073;48.586;12.066;2023-04-24T00:55:44;4.72;;;2.05;;
21820;SDS011;11073;48.586;12.066;2023-04-24T00:58:13;2.75;;;1.85;;
21820;SDS011;11073;48.586;12.066;2023-04-24T01:00:42;2.80;;;1.73;;
21820;SDS011;11073;48.586;12.066;2023-04-24T01:03:12;3.28;;;1.60;;
21820;SDS011;11073;48.586;12.066;2023-04-24T01:05:42;2.88;;;1.80;;
21820;SDS011;11073;48.586;12.066;2023-04-24T01:08:11;2.05;;;1.80;;
21820;SDS011;11073;48.586;12.066;2023-04-24T01:10:39;3.30;;;1.90;;
21820;SDS011;11073;48.586;12.066;2023-04-24T01:13:12;3.58;;;1.83;;
21820;SDS011;11073;48.586;12.066;2023-04-24T01:15:44;2.55;;;1.90;;
21820;SDS011;11073;48.586;12.066;2023-04-24T01:18:13;4.40;;;1.73;;
21820;SDS011;11073;48.586;12.066;2023-04-24T01:20:43;3.08;;;1.60;;
21820;SDS011;11073;48.586;12.066;2023-04-24T01:23:15;2.08;;;1.75;;
21820;SDS011;11073;48.586;12.066;2023-04-24T01:25:44;2.03;;;1.42;;
21820;SDS011;11073;48.586;12.066;2023-04-24T01:28:12;2.83;;;1.50;;
21820;SDS011;11073;48.586;12.066;2023-04-24T01:30:42;2.83;;;1.77;;
21820;SDS011;11073;48.586;12.066;2023-04-24T01:33:13;2.58;;;1.92;;
21820;SDS011;11073;48.586;12.066;2023-04-24T01:35:42;2.42;;;2.05;;
21820;SDS011;11073;48.586;12.066;2023-04-24T01:38:11;1.90;;;1.58;;
21820;SDS011;11073;48.586;12.066;2023-04-24T01:40:42;2.53;;;1.90;;
21820;SDS011;11073;48.586;12.066;2023-04-24T01:43:10;2.35;;;1.70;;
21820;SDS011;11073;48.586;12.066;2023-04-24T01:45:40;2.97;;;1.70;;
21820;SDS011;11073;48.586;12.066;2023-04-24T01:48:10;2.00;;;1.30;;
21820;SDS011;11073;48.586;12.066;2023-04-24T01:50:39;3.20;;;1.65;;
21820;SDS011;11073;48.586;12.066;2023-04-24T01:53:11;1.92;;;1.60;;
21820;SDS011;11073;48.586;12.066;2023-04-24T01:55:41;1.88;;;1.60;;
21820;SDS011;11073;48.586;12.066;2023-04-24T01:58:12;1.67;;;1.50;;
21820;SDS011;11073;48.586;12.066;2023-04-24T02:00:42;3.30;;;1.40;;
21820;SDS011;11073;48.586;12.066;2023-04-24T02:03:10;4.00;;;1.42;;
21820;SDS011;11073;48.586;12.066;2023-04-24T02:05:39;3.08;;;1.88;;
21820;SDS011;11073;48.586;12.066;2023-04-24T02:08:09;3.00;;;1.40;;
21820;SDS011;11073;48.586;12.066;2023-04-24T02:10:38;2.67;;;1.80;;
21820;SDS011;11073;48.586;12.066;2023-04-24T02:13:08;2.42;;;1.40;;
21820;SDS011;11073;48.586;12.066;2023-04-24T02:15:37;1.98;;;1.52;;
21820;SDS011;11073;48.586;12.066;2023-04-24T02:18:05;1.70;;;1.38;;
21820;SDS011;11073;48.586;12.066;2023-04-24T02:20:34;3.40;;;1.52;;
21820;SDS011;11073;48.586;12.066;2023-04-24T02:23:03;1.75;;;1.48;;
21820;SDS011;11073;48.586;12.066;2023-04-24T02:25:32;2.40;;;1.65;;
21820;SDS011;11073;48.586;12.066;2023-04-24T02:28:02;1.63;;;1.30;;
21820;SDS011;11073;48.586;12.066;2023-04-24T02:30:34;2.08;;;1.23;;
21820;SDS011;11073;48.586;12.066;2023-04-24T02:33:03;2.10;;;1.40;;
21820;SDS011;11073;48.586;12.066;2023-04-24T02:35:33;1.80;;;1.40;;
21820;SDS011;11073;48.586;12.066;2023-04-24T02:38:02;2.67;;;1.45;;
21820;SDS011;11073;48.586;12.066;2023-04-24T02:40:30;3.17;;;1.27;;
21820;SDS011;11073;48.586;12.066;2023-04-24T02:42:59;2.20;;;1.40;;
21820;SDS011;11073;48.586;12.066;2023-04-24T02:45:27;2.35;;;1.58;;
21820;SDS011;11073;48.586;12.066;2023-04-24T02:47:58;2.78;;;1.60;;
21820;SDS011;11073;48.586;12.066;2023-04-24T02:50:27;2.78;;;1.60;;
21820;SDS011;11073;48.586;12.066;2023-04-24T02:52:56;3.17;;;1.48;;
21820;SDS011;11073;48.586;12.066;2023-04-24T02:55:24;1.25;;;1.15;;
21820;SDS011;11073;48.586;12.066;2023-04-24T02:57:53;3.30;;;1.60;;
21820;SDS011;11073;48.586;12.066;2023-04-24T03:00:22;2.25;;;1.40;;
21820;SDS011;11073;48.586;12.066;2023-04-24T03:02:51;5.13;;;1.30;;
21820;SDS011;11073;48.586;12.066;2023-04-24T03:05:22;1.55;;;1.30;;
21820;SDS011;11073;48.586;12.066;2023-04-24T03:07:52;3.33;;;1.50;;
21820;SDS011;11073;48.586;12.066;2023-04-24T03:10:21;3.03;;;1.52;;
21820;SDS011;11073;48.586;12.066;2023-04-24T03:12:50;2.38;;;1.67;;
21820;SDS011;11073;48.586;12.066;2023-04-24T03:15:19;3.55;;;1.55;;
21820;SDS011;11073;48.586;12.066;2023-04-24T03:17:49;1.92;;;1.20;;
21820;SDS011;11073;48.586;12.066;2023-04-24T03:20:18;1.90;;;1.10;;
21820;SDS011;11073;48.586;12.066;2023-04-24T03:22:48;1.30;;;1.15;;
21820;SDS011;11073;48.586;12.066;2023-04-24T03:25:17;3.08;;;1.20;;
21820;SDS011;11073;48.586;12.066;2023-04-24T03:27:46;3.90;;;1.23;;
21820;SDS011;11073;48.586;12.066;2023-04-24T03:30:27;1.42;;;0.93;;
21820;SDS011;11073;48.586;12.066;2023-04-24T03:32:58;3.35;;;0.85;;
21820;SDS011;11073;48.586;12.066;2023-04-24T03:35:31;1.38;;;1.13;;
21820;SDS011;11073;48.586;12.066;2023-04-24T03:38:04;1.75;;;0.90;;
21820;SDS011;11073;48.586;12.066;2023-04-24T03:40:42;1.90;;;1.05;;
21820;SDS011;11073;48.586;12.066;2023-04-24T03:43:33;1.40;;;0.68;;
21820;SDS011;11073;48.586;12.066;2023-04-24T03:46:04;1.85;;;1.00;;
21820;SDS011;11073;48.586;12.066;2023-04-24T03:48:37;1.10;;;0.80;;
21820;SDS011;11073;48.586;12.066;2023-04-24T03:51:08;1.25;;;0.75;;
21820;SDS011;11073;48.586;12.066;2023-04-24T03:53:42;2.53;;;0.93;;
21820;SDS011;11073;48.586;12.066;2023-04-24T03:56:13;2.40;;;0.90;;
21820;SDS011;11073;48.586;12.066;2023-04-24T03:58:42;1.90;;;1.10;;
21820;SDS011;11073;48.586;12.066;2023-04-24T04:01:11;1.17;;;0.93;;
21820;SDS011;11073;48.586;12.066;2023-04-24T04:03:42;1.60;;;0.90;;
21820;SDS011;11073;48.586;12.066;2023-04-24T04:06:13;2.42;;;0.98;;
21820;SDS011;11073;48.586;12.066;2023-04-24T04:08:43;2.30;;;0.70;;
21820;SDS011;11073;48.586;12.066;2023-04-24T04:11:12;2.22;;;0.80;;
21820;SDS011;11073;48.586;12.066;2023-04-24T04:13:41;1.48;;;0.82;;
21820;SDS011;11073;48.586;12.066;2023-04-24T04:16:10;1.13;;;0.70;;
21820;SDS011;11073;48.586;12.066;2023-04-24T04:18:40;1.60;;;0.80;;
21820;SDS011;11073;48.586;12.066;2023-04-24T04:21:09;1.23;;;0.93;;
21820;SDS011;11073;48.586;12.066;2023-04-24T04:23:39;2.90;;;0.80;;
21820;SDS011;11073;48.586;12.066;2023-04-24T04:26:23;1.00;;;0.80;;
21820;SDS011;11073;48.586;12.066;2023-04-24T04:29:13;1.17;;;0.70;;
21820;SDS011;11073;48.586;12.066;2023-04-24T04:31:46;1.00;;;0.82;;
21820;SDS011;11073;48.586;12.066;2023-04-24T04:34:15;1.75;;;0.80;;
21820;SDS011;11073;48.586;12.066;2023-04-24T04:36:44;1.00;;;0.90;;
21820;SDS011;11073;48.586;12.066;2023-04-24T04:39:31;2.50;;;1.80;;
21820;SDS011;11073;48.586;12.066;2023-04-24T04:42:03;0.77;;;0.70;;
21820;SDS011;11073;48.586;12.066;2023-04-24T04:44:40;2.53;;;0.82;;
21820;SDS011;11073;48.586;12.066;2023-04-24T04:47:13;1.00;;;0.90;;
21820;SDS011;11073;48.586;12.066;2023-04-24T04:49:44;1.83;;;0.77;;
21820;SDS011;11073;48.586;12.066;2023-04-24T04:52:18;1.42;;;0.88;;
21820;SDS011;11073;48.586;12.066;2023-04-24T04:54:52;1.77;;;0.95;;
21820;SDS011;11073;48.586;12.066;2023-04-24T04:57:24;1.17;;;0.70;;
21820;SDS011;11073;48.586;12.066;2023-04-24T04:59:53;1.58;;;0.80;;
21820;SDS011;11073;48.586;12.066;2023-04-24T05:02:35;3.42;;;0.90;;
21820;SDS011;11073;48.586;12.066;2023-04-24T05:05:05;1.80;;;0.98;;
21820;SDS011;11073;48.586;12.066;2023-04-24T05:07:34;3.33;;;1.13;;
21820;SDS011;11073;48.586;12.066;2023-04-24T05:10:04;1.63;;;0.90;;
21820;SDS011;11073;48.586;12.066;2023-04-24T05:12:35;2.05;;;0.98;;
21820;SDS011;11073;48.586;12.066;2023-04-24T05:15:04;2.33;;;1.02;;
21820;SDS011;11073;48.586;12.066;2023-04-24T05:17:34;1.77;;;0.95;;
21820;SDS011;11073;48.586;12.066;2023-04-24T05:20:03;1.38;;;0.80;;
21820;SDS011;11073;48.586;12.066;2023-04-24T05:22:34;1.45;;;0.80;;
21820;SDS011;11073;48.586;12.066;2023-04-24T05:25:03;2.15;;;0.75;;
21820;SDS011;11073;48.586;12.066;2023-04-24T05:27:42;3.08;;;0.95;;
21820;SDS011;11073;48.586;12.066;2023-04-24T05:30:14;1.25;;;1.02;;
21820;SDS011;11073;48.586;12.066;2023-04-24T05:32:43;3.75;;;1.38;;
21820;SDS011;11073;48.586;12.066;2023-04-24T05:35:12;3.92;;;0.82;;
21820;SDS011;11073;48.586;12.066;2023-04-24T05:37:41;2.90;;;0.90;;
21820;SDS011;11073;48.586;12.066;2023-04-24T05:40:12;1.30;;;0.93;;
21820;SDS011;11073;48.586;12.066;2023-04-24T05:42:43;1.17;;;1.00;;
21820;SDS011;11073;48.586;12.066;2023-04-24T05:45:11;1.52;;;0.90;;
21820;SDS011;11073;48.586;12.066;2023-04-24T05:47:43;2.10;;;1.00;;
21820;SDS011;11073;48.586;12.066;2023-04-24T05:50:12;1.90;;;0.77;;
21820;SDS011;11073;48.586;12.066;2023-04-24T05:52:42;2.00;;;1.00;;
21820;SDS011;11073;48.586;12.066;2023-04-24T05:55:22;2.58;;;0.80;;
21820;SDS011;11073;48.586;12.066;2023-04-24T05:57:54;1.02;;;0.80;;
21820;SDS011;11073;48.586;12.066;2023-04-24T06:00:24;1.98;;;0.90;;
21820;SDS011;11073;48.586;12.066;2023-04-24T06:03:00;1.13;;;0.80;;
21820;SDS011;11073;48.586;12.066;2023-04-24T06:05:31;2.30;;;1.00;;
21820;SDS011;11073;48.586;12.066;2023-04-24T06:08:02;3.38;;;1.15;;
21820;SDS011;11073;48.586;12.066;2023-04-24T06:10:35;1.42;;;1.13;;
21820;SDS011;11073;48.586;12.066;2023-04-24T06:13:07;2.65;;;0.95;;
21820;SDS011;11073;48.586;12.066;2023-04-24T06:15:38;1.00;;;0.63;;
21820;SDS011;11073;48.586;12.066;2023-04-24T06:18:16;2.70;;;0.90;;
21820;SDS011;11073;48.586;12.066;2023-04-24T06:20:44;1.30;;;0.90;;
21820;SDS011;11073;48.586;12.066;2023-04-24T06:23:13;1.67;;;0.90;;
21820;SDS011;11073;48.586;12.066;2023-04-24T06:25:41;2.47;;;1.08;;
21820;SDS011;11073;48.586;12.066;2023-04-24T06:28:12;2.42;;;1.17;;
21820;SDS011;11073;48.586;12.066;2023-04-24T06:30:41;1.50;;;0.93;;
21820;SDS011;11073;48.586;12.066;2023-04-24T06:33:11;1.10;;;0.70;;
21820;SDS011;11073;48.586;12.066;2023-04-24T06:35:45;1.70;;;1.10;;
21820;SDS011;11073;48.586;12.066;2023-04-24T06:38:14;1.48;;;1.13;;
21820;SDS011;11073;48.586;12.066;2023-04-24T06:40:43;1.63;;;0.85;;
21820;SDS011;11073;48.586;12.066;2023-04-24T06:43:13;1.65;;;0.75;;
21820;SDS011;11073;48.586;12.066;2023-04-24T06:45:42;1.52;;;0.80;;
21820;SDS011;11073;48.586;12.066;2023-04-24T06:48:11;2.45;;;1.00;;
21820;SDS011;11073;48.586;12.066;2023-04-24T06:50:40;3.10;;;1.27;;
21820;SDS011;11073;48.586;12.066;2023-04-24T06:53:08;2.85;;;1.02;;
21820;SDS011;11073;48.586;12.066;2023-04-24T06:55:40;2.17;;;0.70;;
21820;SDS011;11073;48.586;12.066;2023-04-24T06:58:10;1.92;;;0.90;;
21820;SDS011;11073;48.586;12.066;2023-04-24T07:00:40;2.00;;;0.75;;
21820;SDS011;11073;48.586;12.066;2023-04-24T07:03:09;1.55;;;0.85;;
21820;SDS011;11073;48.586;12.066;2023-04-24T07:05:38;7.13;;;1.27;;
21820;SDS011;11073;48.586;12.066;2023-04-24T07:08:07;1.10;;;0.88;;
21820;SDS011;11073;48.586;12.066;2023-04-24T07:10:35;2.10;;;0.95;;
21820;SDS011;11073;48.586;12.066;2023-04-24T07:13:04;1.48;;;0.60;;
21820;SDS011;11073;48.586;12.066;2023-04-24T07:15:33;0.85;;;0.70;;
21820;SDS011;11073;48.586;12.066;2023-04-24T07:18:04;1.48;;;0.80;;
21820;SDS011;11073;48.586;12.066;2023-04-24T07:20:33;1.20;;;0.80;;
21820;SDS011;11073;48.586;12.066;2023-04-24T07:23:01;1.42;;;0.75;;
21820;SDS011;11073;48.586;12.066;2023-04-24T07:25:30;1.98;;;0.88;;
21820;SDS011;11073;48.586;12.066;2023-04-24T07:27:59;1.50;;;0.80;;
21820;SDS011;11073;48.586;12.066;2023-04-24T07:30:28;3.47;;;1.23;;
21820;SDS011;11073;48.586;12.066;2023-04-24T07:32:57;2.83;;;0.80;;
21820;SDS011;11073;48.586;12.066;2023-04-24T07:35:27;1.15;;;0.90;;
21820;SDS011;11073;48.586;12.066;2023-04-24T07:37:56;1.20;;;0.80;;
21820;SDS011;11073;48.586;12.066;2023-04-24T07:40:25;2.65;;;0.70;;
21820;SDS011;11073;48.586;12.066;2023-04-24T07:42:54;3.30;;;0.80;;
21820;SDS011;11073;48.586;12.066;2023-04-24T07:45:23;2.65;;;0.90;;
21820;SDS011;11073;48.586;12.066;2023-04-24T07:47:53;1.30;;;1.05;;
21820;SDS011;11073;48.586;12.066;2023-04-24T07:50:22;1.48;;;0.98;;
21820;SDS011;11073;48.586;12.066;2023-04-24T07:52:52;3.85;;;0.80;;
21820;SDS011;11073;48.586;12.066;2023-04-24T07:55:21;1.00;;;0.70;;
21820;SDS011;11073;48.586;12.066;2023-04-24T07:57:53;2.67;;;0.65;;
21820;SDS011;11073;48.586;12.066;2023-04-24T08:00:22;1.40;;;0.73;;
21820;SDS011;11073;48.586;12.066;2023-04-24T08:02:51;3.53;;;0.68;;
21820;SDS011;11073;48.586;12.066;2023-04-24T08:05:19;1.20;;;0.70;;
21820;SDS011;11073;48.586;12.066;2023-04-24T08:07:48;1.73;;;0.70;;
21820;SDS011;11073;48.586;12.066;2023-04-24T08:10:19;2.40;;;0.80;;
21820;SDS011;11073;48.586;12.066;2023-04-24T08:12:47;2.83;;;0.70;;
21820;SDS011;11073;48.586;12.066;2023-04-24T08:15:16;2.60;;;0.85;;
21820;SDS011;11073;48.586;12.066;2023-04-24T08:17:45;1.52;;;0.70;;
21820;SDS011;11073;48.586;12.066;2023-04-24T08:20:13;1.00;;;0.68;;
21820;SDS011;11073;48.586;12.066;2023-04-24T08:22:42;1.33;;;0.88;;
21820;SDS011;11073;48.586;12.066;2023-04-24T08:25:14;1.20;;;0.65;;
21820;SDS011;11073;48.586;12.066;2023-04-24T08:27:44;4.07;;;0.80;;
21820;SDS011;11073;48.586;12.066;2023-04-24T08:30:13;1.05;;;0.70;;
21820;SDS011;11073;48.586;12.066;2023-04-24T08:32:41;1.23;;;0.60;;
21820;SDS011;11073;48.586;12.066;2023-04-24T08:35:10;1.30;;;0.80;;
21820;SDS011;11073;48.586;12.066;2023-04-24T08:37:38;2.03;;;0.70;;
21820;SDS011;11073;48.586;12.066;2023-04-24T08:40:10;2.03;;;0.90;;
21820;SDS011;11073;48.586;12.066;2023-04-24T08:42:41;1.45;;;0.88;;
21820;SDS011;11073;48.586;12.066;2023-04-24T08:45:12;5.80;;;1.23;;
21820;SDS011;11073;48.586;12.066;2023-04-24T08:47:41;1.77;;;0.90;;
21820;SDS011;11073;48.586;12.066;2023-04-24T08:50:11;5.78;;;1.83;;
21820;SDS011;11073;48.586;12.066;2023-04-24T08:52:40;1.88;;;0.95;;
21820;SDS011;11073;48.586;12.066;2023-04-24T08:55:10;2.85;;;1.13;;
21820;SDS011;11073;48.586;12.066;2023-04-24T08:57:39;5.00;;;1.33;;
21820;SDS011;11073;48.586;12.066;2023-04-24T09:00:10;1.52;;;0.90;;
21820;SDS011;11073;48.586;12.066;2023-04-24T09:02:41;1.38;;;0.90;;
21820;SDS011;11073;48.586;12.066;2023-04-24T09:05:11;2.55;;;1.00;;
21820;SDS011;11073;48.586;12.066;2023-04-24T09:07:41;1.70;;;0.80;;
21820;SDS011;11073;48.586;12.066;2023-04-24T09:10:13;1.63;;;0.82;;
21820;SDS011;11073;48.586;12.066;2023-04-24T09:12:42;0.85;;;0.80;;
21820;SDS011;11073;48.586;12.066;2023-04-24T09:15:14;1.15;;;0.80;;
21820;SDS011;11073;48.586;12.066;2023-04-24T09:17:43;1.25;;;0.60;;
21820;SDS011;11073;48.586;12.066;2023-04-24T09:20:12;4.22;;;0.90;;
21820;SDS011;11073;48.586;12.066;2023-04-24T09:22:41;0.98;;;0.70;;
21820;SDS011;11073;48.586;12.066;2023-04-24T09:25:10;1.60;;;0.90;;
21820;SDS011;11073;48.586;12.066;2023-04-24T09:27:43;1.17;;;1.00;;
21820;SDS011;11073;48.586;12.066;2023-04-24T09:30:14;0.98;;;0.73;;
21820;SDS011;11073;48.586;12.066;2023-04-24T09:32:49;1.15;;;0.80;;
21820;SDS011;11073;48.586;12.066;2023-04-24T09:35:40;1.80;;;0.80;;
21820;SDS011;11073;48.586;12.066;2023-04-24T09:38:09;1.10;;;1.00;;
21820;SDS011;11073;48.586;12.066;2023-04-24T09:40:38;1.38;;;1.00;;
21820;SDS011;11073;48.586;12.066;2023-04-24T09:43:10;1.67;;;1.00;;
21820;SDS011;11073;48.586;12.066;2023-04-24T09:45:40;2.75;;;1.23;;
21820;SDS011;11073;48.586;12.066;2023-04-24T09:48:09;1.42;;;1.27;;
21820;SDS011;11073;48.586;12.066;2023-04-24T09:50:38;1.10;;;1.00;;
21820;SDS011;11073;48.586;12.066;2023-04-24T09:53:07;2.47;;;1.35;;
21820;SDS011;11073;48.586;12.066;2023-04-24T09:55:38;2.95;;;1.30;;
21820;SDS011;11073;48.586;12.066;2023-04-24T09:58:08;2.22;;;1.20;;
21820;SDS011;11073;48.586;12.066;2023-04-24T10:00:38;1.20;;;1.10;;
21820;SDS011;11073;48.586;12.066;2023-04-24T10:03:08;1.65;;;1.20;;
21820;SDS011;11073;48.586;12.066;2023-04-24T10:05:38;2.47;;;1.50;;
21820;SDS011;11073;48.586;12.066;2023-04-24T10:08:09;2.95;;;1.60;;
21820;SDS011;11073;48.586;12.066;2023-04-24T10:10:38;2.13;;;1.30;;
21820;SDS011;11073;48.586;12.066;2023-04-24T10:13:08;3.40;;;1.80;;
21820;SDS011;11073;48.586;12.066;2023-04-24T10:15:38;2.38;;;1.30;;
21820;SDS011;11073;48.586;12.066;2023-04-24T10:18:09;2.72;;;1.40;;
21820;SDS011;11073;48.586;12.066;2023-04-24T10:20:40;1.60;;;1.30;;
21820;SDS011;11073;48.586;12.066;2023-04-24T10:23:09;3.45;;;1.90;;
21820;SDS011;11073;48.586;12.066;2023-04-24T10:25:39;2.38;;;1.40;;
21820;SDS011;11073;48.586;12.066;2023-04-24T10:28:08;1.60;;;1.50;;
21820;SDS011;11073;48.586;12.066;2023-04-24T10:30:38;2.10;;;1.45;;
21820;SDS011;11073;48.586;12.066;2023-04-24T10:33:11;2.40;;;1.77;;
21820;SDS011;11073;48.586;12.066;2023-04-24T10:35:42;1.98;;;1.80;;
21820;SDS011;11073;48.586;12.066;2023-04-24T10:38:16;2.00;;;1.52;;
21820;SDS011;11073;48.586;12.066;2023-04-24T10:40:50;2.40;;;1.50;;
21820;SDS011;11073;48.586;12.066;2023-04-24T10:43:19;1.90;;;1.63;;
21820;SDS011;11073;48.586;12.066;2023-04-24T10:46:00;3.42;;;1.50;;
21820;SDS011;11073;48.586;12.066;2023-04-24T10:48:31;3.08;;;1.40;;
21820;SDS011;11073;48.586;12.066;2023-04-24T10:51:00;2.00;;;1.60;;
21820;SDS011;11073;48.586;12.066;2023-04-24T10:53:29;2.70;;;1.67;;
21820;SDS011;11073;48.586;12.066;2023-04-24T10:56:02;2.67;;;1.77;;
21820;SDS011;11073;48.586;12.066;2023-04-24T10:58:36;2.95;;;1.90;;
21820;SDS011;11073;48.586;12.066;2023-04-24T11:01:07;2.70;;;1.70;;
21820;SDS011;11073;48.586;12.066;2023-04-24T11:03:37;2.63;;;1.67;;
21820;SDS011;11073;48.586;12.066;2023-04-24T11:06:09;2.47;;;1.75;;
21820;SDS011;11073;48.586;12.066;2023-04-24T11:08:38;2.50;;;1.60;;
21820;SDS011;11073;48.586;12.066;2023-04-24T11:11:10;4.78;;;1.45;;
21820;SDS011;11073;48.586;12.066;2023-04-24T11:16:35;1.77;;;1.63;;
21820;SDS011;11073;48.586;12.066;2023-04-24T11:19:08;2.47;;;1.60;;
21820;SDS011;11073;48.586;12.066;2023-04-24T11:21:39;3.53;;;1.45;;
21820;SDS011;11073;48.586;12.066;2023-04-24T11:24:28;1.50;;;1.38;;
21820;SDS011;11073;48.586;12.066;2023-04-24T11:27:04;2.60;;;1.40;;
21820;SDS011;11073;48.586;12.066;2023-04-24T11:29:38;2.22;;;1.52;;
21820;SDS011;11073;48.586;12.066;2023-04-24T11:32:14;2.70;;;1.63;;
21820;SDS011;11073;48.586;12.066;2023-04-24T11:34:50;1.75;;;1.48;;
21820;SDS011;11073;48.586;12.066;2023-04-24T11:37:19;2.80;;;1.00;;
21820;SDS011;11073;48.586;12.066;2023-04-24T11:39:49;1.63;;;1.30;;
21820;SDS011;11073;48.586;12.066;2023-04-24T11:42:20;2.80;;;1.30;;
21820;SDS011;11073;48.586;12.066;2023-04-24T11:44:51;1.00;;;0.90;;
21820;SDS011;11073;48.586;12.066;2023-04-24T11:47:27;1.05;;;0.82;;
21820;SDS011;11073;48.586;12.066;2023-04-24T11:49:59;2.85;;;1.00;;
21820;SDS011;11073;48.586;12.066;2023-04-24T11:52:29;1.30;;;0.85;;
21820;SDS011;11073;48.586;12.066;2023-04-24T11:54:58;2.50;;;1.20;;
21820;SDS011;11073;48.586;12.066;2023-04-24T11:57:28;1.20;;;0.98;;
21820;SDS011;11073;48.586;12.066;2023-04-24T12:00:00;1.60;;;1.27;;
21820;SDS011;11073;48.586;12.066;2023-04-24T12:02:38;1.85;;;1.10;;
21820;SDS011;11073;48.586;12.066;2023-04-24T12:05:08;2.30;;;1.05;;
21820;SDS011;11073;48.586;12.066;2023-04-24T12:07:40;1.80;;;1.20;;
21820;SDS011;11073;48.586;12.066;2023-04-24T12:10:11;2.47;;;1.17;;
21820;SDS011;11073;48.586;12.066;2023-04-24T12:12:39;1.98;;;1.70;;
21820;SDS011;11073;48.586;12.066;2023-04-24T12:15:08;4.25;;;1.20;;
21820;SDS011;11073;48.586;12.066;2023-04-24T12:17:41;1.70;;;1.38;;
21820;SDS011;11073;48.586;12.066;2023-04-24T12:20:13;1.25;;;1.15;;
21820;SDS011;11073;48.586;12.066;2023-04-24T12:22:43;1.73;;;1.40;;
21820;SDS011;11073;48.586;12.066;2023-04-24T12:25:13;2.30;;;1.15;;
21820;SDS011;11073;48.586;12.066;2023-04-24T12:27:43;1.45;;;1.25;;
21820;SDS011;11073;48.586;12.066;2023-04-24T12:30:14;1.75;;;1.48;;
21820;SDS011;11073;48.586;12.066;2023-04-24T12:32:45;1.83;;;1.40;;
21820;SDS011;11073;48.586;12.066;2023-04-24T12:35:20;2.08;;;1.30;;
21820;SDS011;11073;48.586;12.066;2023-04-24T12:37:49;2.03;;;1.40;;
21820;SDS011;11073;48.586;12.066;2023-04-24T12:40:19;1.65;;;1.40;;
21820;SDS011;11073;48.586;12.066;2023-04-24T12:42:49;2.10;;;1.30;;
21820;SDS011;11073;48.586;12.066;2023-04-24T12:45:21;3.17;;;1.50;;
21820;SDS011;11073;48.586;12.066;2023-04-24T12:47:52;1.52;;;1.30;;
21820;SDS011;11073;48.586;12.066;2023-04-24T12:50:23;3.17;;;1.75;;
21820;SDS011;11073;48.586;12.066;2023-04-24T12:52:52;3.88;;;1.60;;
21820;SDS011;11073;48.586;12.066;2023-04-24T12:55:20;3.13;;;1.50;;
21820;SDS011;11073;48.586;12.066;2023-04-24T12:57:49;2.95;;;1.60;;
21820;SDS011;11073;48.586;12.066;2023-04-24T13:00:18;1.77;;;1.65;;
21820;SDS011;11073;48.586;12.066;2023-04-24T13:02:47;2.08;;;1.42;;
21820;SDS011;11073;48.586;12.066;2023-04-24T13:05:16;3.22;;;1.50;;
21820;SDS011;11073;48.586;12.066;2023-04-24T13:07:46;2.35;;;1.38;;
21820;SDS011;11073;48.586;12.066;2023-04-24T13:10:15;3.90;;;1.50;;
21820;SDS011;11073;48.586;12.066;2023-04-24T13:12:44;3.50;;;1.35;;
21820;SDS011;11073;48.586;12.066;2023-04-24T13:15:13;2.25;;;1.50;;
21820;SDS011;11073;48.586;12.066;2023-04-24T13:17:42;3.35;;;1.20;;
21820;SDS011;11073;48.586;12.066;2023-04-24T13:20:11;5.30;;;1.55;;
21820;SDS011;11073;48.586;12.066;2023-04-24T13:22:40;1.70;;;1.30;;
21820;SDS011;11073;48.586;12.066;2023-04-24T13:25:10;1.45;;;1.15;;
21820;SDS011;11073;48.586;12.066;2023-04-24T13:27:39;1.55;;;1.15;;
21820;SDS011;11073;48.586;12.066;2023-04-24T13:30:08;2.78;;;1.17;;
21820;SDS011;11073;48.586;12.066;2023-04-24T13:32:38;0.85;;;0.80;;
21820;SDS011;11073;48.586;12.066;2023-04-24T13:35:06;2.78;;;1.00;;
21820;SDS011;11073;48.586;12.066;2023-04-24T13:37:36;1.33;;;0.80;;
21820;SDS011;11073;48.586;12.066;2023-04-24T13:40:05;2.20;;;1.00;;
21820;SDS011;11073;48.586;12.066;2023-04-24T13:42:36;1.92;;;0.70;;
21820;SDS011;11073;48.586;12.066;2023-04-24T13:45:05;2.83;;;0.80;;
21820;SDS011;11073;48.586;12.066;2023-04-24T13:47:50;2.63;;;0.95;;
21820;SDS011;11073;48.586;12.066;2023-04-24T13:50:21;1.60;;;0.88;;
21820;SDS011;11073;48.586;12.066;2023-04-24T13:52:49;1.55;;;1.20;;
21820;SDS011;11073;48.586;12.066;2023-04-24T13:55:18;1.85;;;1.05;;
21820;SDS011;11073;48.586;12.066;2023-04-24T13:57:48;2.22;;;1.10;;
21820;SDS011;11073;48.586;12.066;2023-04-24T14:00:17;2.72;;;1.05;;
21820;SDS011;11073;48.586;12.066;2023-04-24T14:02:47;2.80;;;1.00;;
21820;SDS011;11073;48.586;12.066;2023-04-24T14:05:16;1.90;;;1.02;;
21820;SDS011;11073;48.586;12.066;2023-04-24T14:07:45;1.13;;;0.80;;
21820;SDS011;11073;48.586;12.066;2023-04-24T14:10:13;1.55;;;0.80;;
21820;SDS011;11073;48.586;12.066;2023-04-24T14:12:42;2.03;;;0.80;;
21820;SDS011;11073;48.586;12.066;2023-04-24T14:15:12;1.65;;;1.00;;
21820;SDS011;11073;48.586;12.066;2023-04-24T14:17:41;2.78;;;0.90;;
21820;SDS011;11073;48.586;12.066;2023-04-24T14:20:11;3.45;;;1.27;;
21820;SDS011;11073;48.586;12.066;2023-04-24T14:22:40;1.58;;;0.98;;
21820;SDS011;11073;48.586;12.066;2023-04-24T14:25:09;1.80;;;1.00;;
21820;SDS011;11073;48.586;12.066;2023-04-24T14:27:38;1.13;;;0.80;;
21820;SDS011;11073;48.586;12.066;2023-04-24T14:30:07;1.13;;;0.80;;
21820;SDS011;11073;48.586;12.066;2023-04-24T14:32:39;1.92;;;0.95;;
21820;SDS011;11073;48.586;12.066;2023-04-24T14:35:07;1.45;;;0.90;;
21820;SDS011;11073;48.586;12.066;2023-04-24T14:37:37;2.47;;;0.80;;
21820;SDS011;11073;48.586;12.066;2023-04-24T14:40:08;1.70;;;1.00;;
21820;SDS011;11073;48.586;12.066;2023-04-24T14:42:58;3.63;;;1.02;;
21820;SDS011;11073;48.586;12.066;2023-04-24T14:45:27;1.25;;;1.00;;
21820;SDS011;11073;48.586;12.066;2023-04-24T14:47:57;2.78;;;1.00;;
21820;SDS011;11073;48.586;12.066;2023-04-24T14:50:26;1.30;;;1.15;;
21820;SDS011;11073;48.586;12.066;2023-04-24T14:52:55;2.80;;;0.80;;
21820;SDS011;11073;48.586;12.066;2023-04-24T14:55:25;2.67;;;0.85;;